Time;durP1;ratioP1;P1;durP2;ratioP2;P2;SDS_P1;SDS_P2;PMS_P1;PMS_P2;Temp;Humidity;BMP_temperature;BMP_pressure;BME280_temperature;BME280_humidity;BME280_pressure;Samples;Min_cycle;Max_cycle;Signal;HPM_P1;HPM_P2
2021/08/22 00:00:29;;;;;;;2.60;1.55;;;;;;;18.33;81.95;101204.84;5004421;28;20088;-75
2021/08/22 00:02:55;;;;;;;2.90;1.50;;;;;;;18.33;82.09;101199.56;4988518;28;20034;-75
2021/08/22 00:05:20;;;;;;;2.33;1.58;;;;;;;18.32;81.82;101195.34;4994865;28;20550;-74
2021/08/22 00:07:46;;;;;;;2.08;1.67;;;;;;;18.22;82.09;101191.28;5000739;28;20021;-75
2021/08/22 00:10:11;;;;;;;6.07;1.60;;;;;;;18.14;82.26;101180.97;5007583;28;20359;-75
2021/08/22 00:12:38;;;;;;;2.17;1.50;;;;;;;18.15;82.77;101184.41;4988777;28;20034;-75
2021/08/22 00:15:05;;;;;;;3.78;1.73;;;;;;;18.15;82.55;101179.16;4989630;28;20105;-75
2021/08/22 00:17:30;;;;;;;5.63;1.95;;;;;;;18.17;82.21;101182.38;4982479;28;20128;-75
2021/08/22 00:19:55;;;;;;;3.67;1.95;;;;;;;18.15;82.26;101173.91;4994610;28;20033;-75
2021/08/22 00:22:21;;;;;;;2.92;2.03;;;;;;;18.15;82.10;101172.06;4993532;28;20088;-75
2021/08/22 00:24:46;;;;;;;3.53;1.58;;;;;;;18.19;81.88;101175.91;5011162;28;20049;-75
2021/08/22 00:27:12;;;;;;;2.80;1.67;;;;;;;18.21;81.58;101176.53;5003113;28;20539;-74
2021/08/22 00:29:38;;;;;;;4.40;2.22;;;;;;;18.23;81.43;101166.66;4987623;28;20038;-75
2021/08/22 00:32:05;;;;;;;3.58;1.73;;;;;;;18.22;81.17;101170.28;5002242;28;20116;-75
2021/08/22 00:34:30;;;;;;;4.82;1.70;;;;;;;18.16;81.34;101176.34;4999010;28;20069;-75
2021/08/22 00:36:56;;;;;;;3.08;1.52;;;;;;;18.16;81.28;101173.72;4994133;28;20070;-74
2021/08/22 00:39:24;;;;;;;2.35;1.63;;;;;;;18.16;81.05;101165.00;5000830;28;20076;-75
2021/08/22 00:41:49;;;;;;;2.55;1.27;;;;;;;18.14;81.06;101165.22;5006338;28;20430;-75
2021/08/22 00:44:15;;;;;;;2.40;1.55;;;;;;;18.15;80.87;101166.03;4967341;28;20037;-75
2021/08/22 00:46:40;;;;;;;2.55;1.48;;;;;;;18.16;80.68;101168.47;4992791;28;20033;-75
2021/08/22 00:49:06;;;;;;;3.30;2.15;;;;;;;18.15;80.30;101158.97;5007911;28;20042;-75
2021/08/22 00:51:33;;;;;;;3.88;1.73;;;;;;;18.14;80.14;101161.78;5004831;28;20105;-75
2021/08/22 00:53:59;;;;;;;2.72;1.42;;;;;;;18.11;80.20;101162.19;5004857;28;20471;-74
2021/08/22 00:56:25;;;;;;;5.80;1.95;;;;;;;18.06;80.34;101163.59;4962141;28;20021;-75
2021/08/22 00:58:51;;;;;;;3.95;1.77;;;;;;;18.02;80.33;101170.22;4983358;28;20393;-75
2021/08/22 01:01:20;;;;;;;2.75;1.60;;;;;;;17.98;80.25;101166.38;5005455;28;20033;-75
2021/08/22 01:03:54;;;;;;;2.28;1.58;;;;;;;17.90;80.12;101166.53;4998916;28;20031;-75
2021/08/22 01:06:37;;;;;;;2.55;1.50;;;;;;;17.81;80.36;101175.56;4995671;28;20079;-75
2021/08/22 01:09:22;;;;;;;5.05;1.90;;;;;;;17.75;80.56;101181.56;5000293;28;20030;-75
2021/08/22 01:11:49;;;;;;;3.47;2.00;;;;;;;17.67;80.50;101172.88;4994677;28;20030;-75
2021/08/22 01:14:18;;;;;;;3.95;2.00;;;;;;;17.62;80.67;101171.81;4992072;28;20041;-75
2021/08/22 01:16:52;;;;;;;5.05;1.65;;;;;;;17.56;80.76;101172.59;4983834;28;20037;-75
2021/08/22 01:19:27;;;;;;;4.00;1.55;;;;;;;17.50;80.91;101182.06;4997561;28;20619;-75
2021/08/22 01:21:53;;;;;;;2.53;1.40;;;;;;;17.47;80.85;101182.41;4984789;28;20041;-75
2021/08/22 01:24:20;;;;;;;3.55;2.28;;;;;;;17.45;80.66;101190.47;5002471;28;20034;-75
2021/08/22 01:26:46;;;;;;;4.55;2.20;;;;;;;17.40;80.78;101186.81;4999456;28;20036;-75
2021/08/22 01:29:14;;;;;;;2.55;1.63;;;;;;;17.35;81.06;101183.94;5008418;28;20045;-75
2021/08/22 01:31:45;;;;;;;3.05;2.00;;;;;;;17.35;81.10;101187.38;5004559;28;20480;-75
2021/08/22 01:34:11;;;;;;;3.10;1.85;;;;;;;17.34;81.20;101190.19;4989101;28;20041;-75
2021/08/22 01:36:38;;;;;;;2.55;1.90;;;;;;;17.30;81.33;101187.94;4969033;28;20128;-75
2021/08/22 01:39:05;;;;;;;6.40;2.53;;;;;;;17.26;81.78;101197.19;4993978;28;20038;-75
2021/08/22 01:41:31;;;;;;;3.92;2.25;;;;;;;17.27;82.14;101192.75;4972099;28;20362;-75
2021/08/22 01:43:57;;;;;;;4.03;2.60;;;;;;;17.23;82.70;101204.63;4999942;28;20040;-75
2021/08/22 01:46:34;;;;;;;5.90;2.80;;;;;;;17.22;83.47;101200.41;4967865;28;20123;-75
2021/08/22 01:49:05;;;;;;;8.80;3.42;;;;;;;17.20;84.01;101194.53;5000773;28;20026;-75
2021/08/22 01:51:32;;;;;;;4.45;2.80;;;;;;;17.19;84.38;101192.91;4995481;28;20565;-74
2021/08/22 01:54:04;;;;;;;7.55;3.17;;;;;;;17.20;84.83;101192.72;4980953;28;20391;-75
2021/08/22 01:56:30;;;;;;;4.57;3.50;;;;;;;17.25;85.15;101194.75;5000460;28;20472;-75
2021/08/22 01:58:56;;;;;;;6.53;4.32;;;;;;;17.19;85.73;101193.72;4990943;28;20033;-74
2021/08/22 02:01:22;;;;;;;8.35;4.70;;;;;;;17.22;85.99;101203.81;4982933;28;20049;-74
2021/08/22 02:04:01;;;;;;;7.90;4.53;;;;;;;17.18;86.77;101197.34;4987527;28;20022;-75
2021/08/22 02:06:36;;;;;;;6.07;4.38;;;;;;;17.19;86.93;101196.34;4996396;28;20650;-75
2021/08/22 02:09:07;;;;;;;11.82;5.40;;;;;;;17.26;86.82;101197.19;4985865;28;20107;-75
2021/08/22 02:11:41;;;;;;;8.88;6.43;;;;;;;17.30;86.82;101187.94;4995487;28;20477;-76
2021/08/22 02:14:08;;;;;;;8.90;6.18;;;;;;;17.21;87.46;101190.91;4994991;28;20034;-75
2021/08/22 02:16:34;;;;;;;9.38;6.95;;;;;;;17.24;87.74;101190.53;4970306;28;20068;-75
2021/08/22 02:19:01;;;;;;;8.90;6.15;;;;;;;17.25;87.71;101185.13;4988708;28;20030;-75
2021/08/22 02:21:27;;;;;;;12.68;7.25;;;;;;;17.40;87.61;101189.44;4981624;28;20115;-76
2021/08/22 02:23:56;;;;;;;10.18;6.50;;;;;;;17.32;87.84;101185.94;4993153;28;20038;-77
2021/08/22 02:26:22;;;;;;;17.05;7.90;;;;;;;17.39;87.94;101190.44;4981913;28;20050;-76
2021/08/22 02:28:56;;;;;;;12.68;6.90;;;;;;;17.29;88.40;101188.97;4987426;28;20646;-76
2021/08/22 02:31:26;;;;;;;11.27;7.35;;;;;;;17.34;88.67;101193.63;4987037;28;20376;-76
2021/08/22 02:33:52;;;;;;;12.27;7.55;;;;;;;17.26;88.93;101194.56;4987154;28;20034;-76
2021/08/22 02:36:17;;;;;;;16.75;9.25;;;;;;;17.35;88.87;101195.25;4997174;28;20132;-76
2021/08/22 02:38:43;;;;;;;11.30;8.25;;;;;;;17.34;89.05;101196.25;5006013;28;20091;-77
2021/08/22 02:41:08;;;;;;;10.65;8.63;;;;;;;17.28;89.23;101202.25;4988352;28;20033;-76
2021/08/22 02:43:34;;;;;;;13.23;8.70;;;;;;;17.31;89.41;101194.81;5010336;28;20569;-76
2021/08/22 02:45:59;;;;;;;13.90;9.45;;;;;;;17.36;89.29;101204.72;4989109;28;20033;-75
2021/08/22 02:48:24;;;;;;;15.73;9.88;;;;;;;17.37;89.23;101200.31;4990055;28;20110;-75
2021/08/22 02:50:50;;;;;;;12.43;8.43;;;;;;;17.30;89.41;101195.81;4995295;28;20610;-76
2021/08/22 02:53:15;;;;;;;16.67;9.88;;;;;;;17.39;89.43;101198.31;4975360;28;20057;-76
2021/08/22 02:55:41;;;;;;;16.23;10.45;;;;;;;17.35;89.28;101200.50;4993681;28;20105;-75
2021/08/22 02:58:06;;;;;;;14.82;10.45;;;;;;;17.38;89.06;101200.09;4992011;28;20072;-77
2021/08/22 03:00:32;;;;;;;12.43;9.40;;;;;;;17.35;88.95;101200.50;4973733;28;20029;-75
2021/08/22 03:02:57;;;;;;;13.30;9.43;;;;;;;17.39;88.84;101198.31;4986480;28;20026;-77
2021/08/22 03:05:23;;;;;;;15.27;9.75;;;;;;;17.35;88.99;101191.81;4983252;28;20030;-76
2021/08/22 03:07:48;;;;;;;13.48;9.10;;;;;;;17.35;89.21;101197.88;5010384;28;20038;-77
2021/08/22 03:10:14;;;;;;;13.18;9.02;;;;;;;17.34;89.40;101204.09;4974374;28;20049;-76
2021/08/22 03:12:39;;;;;;;11.73;7.47;;;;;;;17.37;89.31;101193.25;4977375;28;20031;-77
2021/08/22 03:15:09;;;;;;;15.52;9.57;;;;;;;17.48;88.66;101197.97;5012396;28;20065;-77
2021/08/22 03:17:35;;;;;;;15.00;9.50;;;;;;;17.46;88.39;101197.34;4994502;28;20033;-77
2021/08/22 03:20:04;;;;;;;14.35;9.70;;;;;;;17.41;88.67;101198.94;4982638;28;20125;-76
2021/08/22 03:22:31;;;;;;;16.00;8.93;;;;;;;17.34;88.86;101198.88;5008441;28;20164;-76
2021/08/22 03:24:57;;;;;;;14.20;9.02;;;;;;;17.35;89.33;101199.66;5002417;28;20037;-76
2021/08/22 03:27:23;;;;;;;16.23;9.60;;;;;;;17.36;89.49;101201.31;5021321;28;20029;-77
2021/08/22 03:29:48;;;;;;;16.50;10.10;;;;;;;17.41;89.17;101189.25;4995315;28;20038;-77
2021/08/22 03:32:14;;;;;;;12.50;9.18;;;;;;;17.39;89.18;101195.69;4992139;28;20519;-77
2021/08/22 03:34:39;;;;;;;15.30;9.80;;;;;;;17.35;89.38;101197.03;4993711;28;20027;-77
2021/08/22 03:37:05;;;;;;;18.27;10.18;;;;;;;17.40;89.36;101194.66;5009408;28;20395;-77
2021/08/22 03:39:31;;;;;;;13.13;8.90;;;;;;;17.34;89.52;101193.63;4977005;28;20030;-76
2021/08/22 03:41:56;;;;;;;17.35;10.88;;;;;;;17.36;89.49;101196.06;4979103;28;20048;-78
2021/08/22 03:44:22;;;;;;;17.58;11.02;;;;;;;17.46;89.23;101191.28;5011491;28;20670;-76
2021/08/22 03:46:48;;;;;;;16.10;10.95;;;;;;;17.46;89.18;101192.09;4995643;28;20163;-77
2021/08/22 03:49:13;;;;;;;15.52;10.40;;;;;;;17.33;89.64;101207.75;5005832;28;20053;-79
2021/08/22 03:51:39;;;;;;;18.60;10.57;;;;;;;17.35;89.67;101199.66;4995619;28;20117;-78
2021/08/22 03:54:04;;;;;;;15.55;9.75;;;;;;;17.35;89.68;101194.41;4974006;28;20053;-77
2021/08/22 03:56:30;;;;;;;11.73;9.48;;;;;;;17.37;89.38;101208.97;4993808;28;20041;-77
2021/08/22 03:58:56;;;;;;;16.55;9.32;;;;;;;17.31;89.64;101207.94;4981060;28;20030;-78
2021/08/22 04:01:22;;;;;;;12.70;9.82;;;;;;;17.27;89.87;101201.44;4995456;28;20064;-78
2021/08/22 04:03:52;;;;;;;14.18;9.48;;;;;;;17.27;89.96;101203.25;4986181;28;20026;-77
2021/08/22 04:06:47;;;;;;;16.80;10.60;;;;;;;17.40;89.28;101194.66;4982303;28;20602;-77
2021/08/22 04:09:12;;;;;;;;;;;;;;;17.40;88.69;101200.72;5012125;28;20041;-79
2021/08/22 04:11:38;;;;;;;15.93;11.45;;;;;;;17.48;88.44;101199.78;5009354;28;19920;-77
2021/08/22 04:14:04;;;;;;;16.30;10.73;;;;;;;17.38;88.25;101202.72;4975421;28;20490;-78
2021/08/22 04:16:29;;;;;;;17.85;11.52;;;;;;;17.34;89.10;101198.88;4968009;28;20043;-80
2021/08/22 04:18:55;;;;;;;20.00;11.27;;;;;;;17.37;88.58;101193.25;4975293;28;20030;-79
2021/08/22 04:21:20;;;;;;;29.92;14.00;;;;;;;17.36;88.19;101206.53;5000906;28;20026;-79
2021/08/22 04:23:46;;;;;;;20.10;12.98;;;;;;;17.34;88.74;101208.53;4984937;28;20022;-80
2021/08/22 04:26:11;;;;;;;27.85;13.50;;;;;;;17.37;87.93;101211.59;4992906;28;20330;-78
2021/08/22 04:28:37;;;;;;;27.10;14.45;;;;;;;17.23;87.52;101207.25;5004024;28;20509;-80
2021/08/22 04:31:02;;;;;;;31.70;14.48;;;;;;;17.21;87.78;101211.88;4964316;28;20084;-78
2021/08/22 04:33:28;;;;;;;27.02;14.90;;;;;;;17.24;87.69;101217.53;4982176;28;20479;-79
2021/08/22 04:35:55;;;;;;;29.25;14.20;;;;;;;17.20;88.05;101218.13;4987123;28;20319;-79
2021/08/22 04:38:20;;;;;;;24.23;13.43;;;;;;;17.18;88.12;101209.63;4988931;28;20504;-78
2021/08/22 04:40:46;;;;;;;30.35;15.00;;;;;;;17.23;87.84;101210.66;4984451;28;20502;-76
2021/08/22 04:43:11;;;;;;;25.63;14.93;;;;;;;17.17;88.03;101214.06;5013044;28;20033;-78
2021/08/22 04:45:36;;;;;;;22.38;12.52;;;;;;;17.12;88.47;101212.00;4990519;28;20419;-78
2021/08/22 04:48:02;;;;;;;28.73;14.45;;;;;;;17.15;87.92;101223.91;5004908;28;20128;-79
2021/08/22 04:50:28;;;;;;;25.58;13.77;;;;;;;17.19;88.02;101219.91;4986330;28;20057;-79
2021/08/22 04:52:53;;;;;;;25.02;14.82;;;;;;;17.10;88.09;101221.03;4975722;28;20033;-78
2021/08/22 04:55:19;;;;;;;25.17;12.68;;;;;;;17.11;88.05;101228.72;4980923;28;20038;-79
2021/08/22 04:57:44;;;;;;;25.55;14.70;;;;;;;17.18;87.60;101225.34;4979493;28;20118;-80
2021/08/22 05:00:10;;;;;;;29.35;15.15;;;;;;;17.13;87.91;101228.53;4967623;28;20042;-78
2021/08/22 05:02:36;;;;;;;24.73;13.20;;;;;;;17.11;87.94;101228.72;4989683;28;20033;-80
2021/08/22 05:05:01;;;;;;;24.58;13.50;;;;;;;17.12;88.18;101234.75;4974054;28;20088;-79
2021/08/22 05:07:27;;;;;;;31.67;17.00;;;;;;;17.23;87.08;101234.25;5002174;28;20491;-77
2021/08/22 05:09:53;;;;;;;25.35;14.20;;;;;;;17.19;87.30;101234.84;4979552;28;20041;-79
2021/08/22 05:12:18;;;;;;;25.60;14.52;;;;;;;17.16;87.46;101225.56;4982246;28;20049;-79
2021/08/22 05:14:43;;;;;;;28.17;15.25;;;;;;;17.14;86.96;101235.41;4995294;28;20041;-79
2021/08/22 05:17:11;;;;;;;27.42;15.27;;;;;;;17.18;87.33;101235.81;4989411;28;20395;-79
2021/08/22 05:19:36;;;;;;;27.80;14.85;;;;;;;17.12;87.55;101237.38;4991213;28;20022;-79
2021/08/22 05:22:02;;;;;;;27.08;16.27;;;;;;;17.08;88.11;101236.97;4990290;28;20040;-79
2021/08/22 05:24:29;;;;;;;26.98;15.30;;;;;;;17.09;87.96;101245.63;5007095;28;20030;-79
2021/08/22 05:26:55;;;;;;;33.00;18.35;;;;;;;17.17;87.26;101237.63;4972075;28;20217;-78
2021/08/22 05:29:20;;;;;;;33.88;18.17;;;;;;;17.18;87.09;101247.13;4989869;28;20034;-78
2021/08/22 05:31:46;;;;;;;26.52;15.85;;;;;;;17.11;87.55;101246.25;4975720;28;20022;-79
2021/08/22 05:34:11;;;;;;;33.60;17.75;;;;;;;17.22;87.32;101240.50;4985753;28;20388;-79
2021/08/22 05:36:37;;;;;;;32.45;17.38;;;;;;;17.19;86.97;101238.25;4981959;28;20037;-78
2021/08/22 05:39:04;;;;;;;31.20;19.60;;;;;;;17.16;86.94;101243.06;4972404;28;20500;-76
2021/08/22 05:41:30;;;;;;;32.72;18.40;;;;;;;17.10;86.91;101249.88;4994184;28;20105;-78
2021/08/22 05:43:55;;;;;;;29.73;16.52;;;;;;;16.98;87.24;101248.75;4997686;28;20034;-79
2021/08/22 05:46:21;;;;;;;24.90;15.20;;;;;;;16.97;87.72;101249.75;4975061;28;20030;-78
2021/08/22 05:48:46;;;;;;;26.35;15.30;;;;;;;17.02;87.57;101252.63;4985087;28;20476;-78
2021/08/22 05:51:19;;;;;;;29.33;16.77;;;;;;;17.10;87.52;101244.63;4978202;28;20144;-78
2021/08/22 05:53:46;;;;;;;26.88;17.33;;;;;;;17.07;87.05;101237.97;4971902;28;20030;-78
2021/08/22 05:56:12;;;;;;;32.63;18.25;;;;;;;17.10;87.22;101257.72;4967537;28;20546;-80
2021/08/22 05:58:37;;;;;;;21.95;14.15;;;;;;;17.07;87.44;101255.50;4992110;28;20094;-78
2021/08/22 06:01:03;;;;;;;28.20;17.23;;;;;;;17.11;87.48;101256.75;5002235;28;20439;-78
2021/08/22 06:03:30;;;;;;;27.73;16.15;;;;;;;17.19;86.74;101261.03;4963702;28;20467;-78
2021/08/22 06:05:55;;;;;;;27.13;14.80;;;;;;;17.10;86.80;101257.72;4993043;28;20033;-78
2021/08/22 06:08:21;;;;;;;30.58;17.73;;;;;;;17.21;86.12;101261.66;4995610;28;20030;-77
2021/08/22 06:10:46;;;;;;;25.02;14.73;;;;;;;17.41;86.12;101267.06;4986132;28;20033;-79
2021/08/22 06:13:12;;;;;;;29.58;16.45;;;;;;;17.43;85.16;101271.13;4978879;28;20029;-80
2021/08/22 06:15:38;;;;;;;22.52;14.38;;;;;;;17.74;84.86;101271.72;4969958;28;20487;-78
2021/08/22 06:18:04;;;;;;;21.70;13.65;;;;;;;17.88;83.90;101276.09;4999112;28;20048;-78
2021/08/22 06:20:30;;;;;;;23.95;13.80;;;;;;;17.98;83.71;101271.31;4973325;28;20026;-78
2021/08/22 06:22:55;;;;;;;21.70;12.68;;;;;;;18.09;83.24;101269.97;4995677;28;20379;-78
2021/08/22 06:25:21;;;;;;;24.45;14.70;;;;;;;18.05;82.70;101272.16;5005040;28;20017;-77
2021/08/22 06:27:46;;;;;;;21.80;13.48;;;;;;;18.05;82.58;101280.03;4982497;28;20483;-78
2021/08/22 06:30:12;;;;;;;22.33;13.73;;;;;;;18.05;83.06;101276.59;5003633;28;20084;-77
2021/08/22 06:32:37;;;;;;;23.15;14.43;;;;;;;18.03;83.47;101284.66;4999942;28;20076;-79
2021/08/22 06:35:03;;;;;;;23.80;13.30;;;;;;;18.18;82.70;101279.28;5008275;28;20052;-77
2021/08/22 06:37:30;;;;;;;22.25;13.18;;;;;;;18.23;82.40;101284.78;4978669;28;20141;-78
2021/08/22 06:39:56;;;;;;;25.98;14.00;;;;;;;18.31;81.80;101289.03;4992103;28;20130;-77
2021/08/22 06:42:21;;;;;;;18.70;12.82;;;;;;;18.24;82.41;101278.50;4989715;28;20030;-78
2021/08/22 06:44:46;;;;;;;20.92;13.02;;;;;;;18.32;82.52;101285.41;5003163;28;20446;-77
2021/08/22 06:47:12;;;;;;;23.30;13.30;;;;;;;18.38;82.25;101284.59;4993156;28;20026;-78
2021/08/22 06:49:38;;;;;;;20.42;12.55;;;;;;;18.53;81.93;101270.53;4987594;28;20034;-78
2021/08/22 06:52:04;;;;;;;21.13;12.02;;;;;;;18.61;81.22;101262.47;4997656;28;20041;-77
2021/08/22 06:54:30;;;;;;;21.60;11.65;;;;;;;18.79;80.73;101264.56;5005260;28;20037;-77
2021/08/22 06:56:55;;;;;;;20.05;12.75;;;;;;;18.76;80.69;101262.31;4970863;28;20097;-78
2021/08/22 06:59:22;;;;;;;21.88;11.88;;;;;;;18.72;80.96;101268.97;5002754;28;20029;-77
2021/08/22 07:01:48;;;;;;;20.50;12.55;;;;;;;18.71;80.72;101262.91;5006633;28;20428;-77
2021/08/22 07:04:13;;;;;;;20.13;11.45;;;;;;;18.90;79.60;101269.25;5007040;28;20384;-77
2021/08/22 07:06:39;;;;;;;17.85;11.02;;;;;;;18.82;79.48;101272.06;4986191;28;20519;-78
2021/08/22 07:09:04;;;;;;;16.83;10.20;;;;;;;18.74;80.27;101272.22;4998894;28;20042;-77
2021/08/22 07:11:30;;;;;;;20.27;10.85;;;;;;;18.72;79.70;101271.59;4988930;28;20310;-77
2021/08/22 07:13:56;;;;;;;21.20;11.70;;;;;;;18.77;80.15;101277.06;4990083;28;20132;-77
2021/08/22 07:16:22;;;;;;;19.50;10.35;;;;;;;18.75;80.17;101261.50;4999313;28;20487;-77
2021/08/22 07:18:47;;;;;;;21.35;11.85;;;;;;;18.84;80.37;101270.06;4988132;28;20057;-77
2021/08/22 07:21:13;;;;;;;20.42;10.98;;;;;;;18.98;79.74;101276.13;4999424;28;20605;-77
2021/08/22 07:23:38;;;;;;;22.85;12.13;;;;;;;18.89;79.46;101277.31;4994346;28;20029;-76
2021/08/22 07:26:04;;;;;;;29.70;12.00;;;;;;;18.90;79.30;101284.22;5009444;28;20057;-77
2021/08/22 07:28:29;;;;;;;18.75;11.00;;;;;;;19.00;80.03;101279.38;4993975;28;20034;-77
2021/08/22 07:30:55;;;;;;;20.27;10.73;;;;;;;19.22;77.86;101280.00;4981682;28;20030;-78
2021/08/22 07:33:20;;;;;;;17.70;9.50;;;;;;;19.09;77.27;101280.00;4994820;28;20029;-77
2021/08/22 07:35:46;;;;;;;17.52;10.32;;;;;;;19.05;78.57;101280.38;4975032;28;20483;-77
2021/08/22 07:38:11;;;;;;;15.57;9.25;;;;;;;19.05;78.80;101288.28;5013394;28;20044;-77
2021/08/22 07:40:37;;;;;;;15.32;8.68;;;;;;;19.04;79.30;101289.28;4993146;28;20026;-77
2021/08/22 07:43:03;;;;;;;15.95;9.55;;;;;;;18.97;79.35;101290.28;4998098;28;20030;-77
2021/08/22 07:45:28;;;;;;;16.42;8.50;;;;;;;18.88;79.22;101283.59;4994042;28;20453;-77
2021/08/22 07:47:54;;;;;;;10.23;6.93;;;;;;;18.88;79.82;101284.41;4991526;28;20033;-77
2021/08/22 07:50:19;;;;;;;13.55;8.00;;;;;;;19.14;79.49;101286.25;4982487;28;20022;-76
2021/08/22 07:52:45;;;;;;;13.20;8.65;;;;;;;19.25;79.21;101290.13;4999756;28;20034;-78
2021/08/22 07:55:11;;;;;;;12.13;8.43;;;;;;;19.40;77.85;101295.16;4981930;28;20061;-76
2021/08/22 07:57:37;;;;;;;11.00;7.63;;;;;;;19.35;77.47;101292.34;5009232;28;20044;-77
2021/08/22 08:00:03;;;;;;;12.10;8.13;;;;;;;19.22;78.86;101290.50;5000285;28;20029;-77
2021/08/22 08:02:37;;;;;;;12.65;6.93;;;;;;;19.24;78.59;101285.88;4999176;28;20038;-77
2021/08/22 08:05:02;;;;;;;16.00;8.63;;;;;;;19.58;77.40;101298.00;4980001;28;20033;-74
2021/08/22 08:07:28;;;;;;;12.25;8.32;;;;;;;19.47;76.52;101282.03;4995313;28;20275;-76
2021/08/22 08:09:53;;;;;;;12.93;7.90;;;;;;;19.40;77.02;101284.63;4992092;28;20041;-76
2021/08/22 08:12:19;;;;;;;14.50;7.63;;;;;;;19.59;76.47;101297.00;4999451;28;20037;-76
2021/08/22 08:14:44;;;;;;;11.40;7.30;;;;;;;20.55;73.90;101289.44;4988598;28;20522;-76
2021/08/22 08:17:09;;;;;;;14.32;6.43;;;;;;;21.19;72.54;101291.13;4986253;28;20033;-77
2021/08/22 08:19:35;;;;;;;10.00;7.35;;;;;;;22.00;69.24;101288.59;5000389;28;20034;-77
2021/08/22 08:22:01;;;;;;;11.75;6.90;;;;;;;21.93;69.33;101280.72;5002406;28;20503;-77
2021/08/22 08:24:26;;;;;;;11.50;7.00;;;;;;;21.46;69.79;101292.75;5008696;28;20061;-76
2021/08/22 08:26:52;;;;;;;12.35;6.15;;;;;;;21.38;69.66;101293.81;4985750;28;20108;-77
2021/08/22 08:29:17;;;;;;;12.98;6.50;;;;;;;21.46;69.64;101290.13;5001160;28;20549;-77
2021/08/22 08:31:43;;;;;;;10.27;5.85;;;;;;;21.12;69.54;101290.34;5001329;28;20068;-77
2021/08/22 08:34:09;;;;;;;10.43;5.95;;;;;;;21.04;70.91;101301.16;4984505;28;20030;-77
2021/08/22 08:36:34;;;;;;;8.35;5.38;;;;;;;21.35;69.86;101297.66;4993720;28;20042;-77
2021/08/22 08:39:00;;;;;;;9.02;5.68;;;;;;;21.37;69.43;101297.47;5009746;28;20042;-76
2021/08/22 08:41:25;;;;;;;11.52;6.03;;;;;;;21.57;68.59;101300.78;4992445;28;20076;-77
2021/08/22 08:43:53;;;;;;;7.65;4.57;;;;;;;22.25;67.17;101288.50;5007461;28;20073;-77
2021/08/22 08:46:39;;;;;;;8.80;5.28;;;;;;;22.42;66.51;101295.84;4978742;28;20583;-76
2021/08/22 08:49:25;;;;;;;7.30;4.72;;;;;;;22.81;65.47;101285.72;5011621;28;20048;-77
2021/08/22 08:52:06;;;;;;;8.98;4.53;;;;;;;23.10;63.37;101290.22;5009216;28;20535;-77
2021/08/22 08:54:44;;;;;;;7.63;4.60;;;;;;;23.34;61.79;101290.25;4993616;28;20041;-76
2021/08/22 08:57:10;;;;;;;6.30;3.80;;;;;;;23.52;60.75;101291.97;4983633;28;20026;-78
2021/08/22 08:59:37;;;;;;;8.77;4.47;;;;;;;23.81;59.91;101292.09;5007101;28;20506;-77
2021/08/22 09:02:02;;;;;;;9.77;4.15;;;;;;;23.73;59.69;101287.91;4972013;28;20509;-76
2021/08/22 09:04:30;;;;;;;7.90;4.07;;;;;;;23.64;59.56;101290.13;5009613;28;20025;-78
2021/08/22 09:07:17;;;;;;;13.95;3.50;;;;;;;23.43;58.73;101291.53;4974006;28;20030;-77
2021/08/22 09:10:20;;;;;;;6.53;3.13;;;;;;;22.50;59.82;101295.53;4990385;28;20042;-77
2021/08/22 09:13:23;;;;;;;5.05;3.05;;;;;;;21.93;62.89;101311.59;4991257;28;20029;-76
2021/08/22 09:16:46;;;;;;;5.50;3.10;;;;;;;21.84;62.80;101300.50;5001110;28;20030;-76
2021/08/22 09:19:48;;;;;;;4.85;3.08;;;;;;;21.71;63.42;101301.44;4937635;28;20138;-78
2021/08/22 09:22:28;;;;;;;5.68;3.10;;;;;;;21.81;62.96;101305.41;4953218;28;20292;-75
2021/08/22 09:25:38;;;;;;;5.57;3.10;;;;;;;22.38;61.28;101306.03;5040774;28;20146;-72
2021/08/22 09:28:42;;;;;;;7.07;3.30;;;;;;;23.10;60.74;101298.13;5043144;28;20131;-72
2021/08/22 09:31:26;;;;;;;;;;;;;;;23.38;56.75;101298.53;5046960;28;20348;-71
2021/08/22 09:34:29;;;;;;;8.82;3.20;;;;;;;23.35;56.93;101293.69;5045673;28;20444;-72
2021/08/22 09:37:42;;;;;;;8.10;2.95;;;;;;;23.55;58.06;101290.72;5042032;28;20479;-70
2021/08/22 09:40:35;;;;;;;6.30;3.00;;;;;;;23.04;57.19;101291.13;5025488;28;20090;-69
2021/08/22 09:43:38;;;;;;;7.18;3.20;;;;;;;22.99;57.39;101293.59;5040042;28;20029;-69
2021/08/22 09:46:44;;;;;;;4.18;2.47;;;;;;;23.33;55.79;101288.63;5044156;28;20306;-70
2021/08/22 09:49:15;;;;;;;6.00;3.15;;;;;;;23.73;55.88;101279.19;5045530;28;20059;-70
2021/08/22 09:51:52;;;;;;;7.93;3.00;;;;;;;23.89;55.29;101279.31;5041823;28;20063;-69
2021/08/22 09:54:55;;;;;;;8.65;2.95;;;;;;;23.77;54.96;101285.63;5041672;28;20063;-70
2021/08/22 09:57:57;;;;;;;5.60;2.90;;;;;;;23.74;54.65;101278.16;5041846;28;20041;-69
2021/08/22 10:00:47;;;;;;;5.45;3.45;;;;;;;23.55;56.29;101282.78;5041467;28;20645;-70
2021/08/22 10:03:34;;;;;;;5.63;3.33;;;;;;;23.94;56.08;101280.44;5042418;28;20564;-69
2021/08/22 10:06:19;;;;;;;7.65;3.10;;;;;;;24.01;55.93;101278.47;5039041;28;20045;-69
2021/08/22 10:08:56;;;;;;;5.05;2.70;;;;;;;24.28;54.02;101274.25;5043426;28;20033;-69
2021/08/22 10:12:00;;;;;;;8.38;2.88;;;;;;;24.20;55.23;101281.75;5038257;28;20029;-70
2021/08/22 10:14:27;;;;;;;5.60;2.17;;;;;;;24.38;53.54;101286.09;5039046;28;20052;-70
2021/08/22 10:16:56;;;;;;;6.38;3.10;;;;;;;24.28;54.75;101289.34;5045374;28;20408;-70
2021/08/22 10:19:26;;;;;;;10.18;3.70;;;;;;;23.79;52.44;101286.22;5044964;28;20338;-69
2021/08/22 10:22:31;;;;;;;9.40;3.67;;;;;;;23.73;52.99;101290.56;5047268;28;20033;-68
2021/08/22 10:25:03;;;;;;;6.22;2.78;;;;;;;23.40;51.14;101294.63;5035054;28;20044;-68
2021/08/22 10:27:32;;;;;;;4.55;2.80;;;;;;;23.47;52.01;101281.25;5041123;28;20037;-69
2021/08/22 10:30:04;;;;;;;7.03;3.20;;;;;;;23.09;53.04;101283.31;5045080;28;20036;-68
2021/08/22 10:32:33;;;;;;;9.77;3.33;;;;;;;23.27;54.41;101282.41;5043690;28;20033;-69
2021/08/22 10:35:14;;;;;;;6.03;3.28;;;;;;;22.85;54.63;101292.19;5037756;28;20033;-69
2021/08/22 10:37:46;;;;;;;7.70;2.85;;;;;;;23.24;55.79;101285.50;5028497;28;20029;-70
2021/08/22 10:40:23;;;;;;;4.45;2.58;;;;;;;23.64;54.25;101279.53;5030683;28;20025;-68
2021/08/22 10:42:50;;;;;;;7.05;3.35;;;;;;;23.81;52.57;101274.38;5029772;28;20107;-68
2021/08/22 10:45:40;;;;;;;6.35;2.83;;;;;;;23.70;54.35;101283.09;5038912;28;20037;-69
2021/08/22 10:48:27;;;;;;;7.55;3.03;;;;;;;23.24;53.29;101284.69;5026806;28;20037;-70
2021/08/22 10:51:02;;;;;;;10.38;4.03;;;;;;;23.07;53.57;101289.84;5019820;28;20064;-69
2021/08/22 10:53:34;;;;;;;7.80;2.83;;;;;;;22.98;52.81;101284.06;5029517;28;20033;-70
2021/08/22 10:56:22;;;;;;;10.02;3.83;;;;;;;22.89;52.82;101280.94;5026316;28;20505;-70
2021/08/22 10:59:09;;;;;;;7.78;3.47;;;;;;;23.05;53.96;101284.78;5031887;28;20089;-70
2021/08/22 11:01:39;;;;;;;6.68;3.58;;;;;;;23.07;55.09;101281.91;5014542;28;20123;-70
2021/08/22 11:04:19;;;;;;;7.85;2.90;;;;;;;23.11;56.05;101283.06;5026731;28;20026;-70
2021/08/22 11:07:06;;;;;;;7.53;3.35;;;;;;;22.98;54.81;101280.59;5030840;28;20068;-70
2021/08/22 11:09:35;;;;;;;8.60;3.40;;;;;;;22.86;54.85;101277.94;5027171;28;20136;-70
2021/08/22 11:12:01;;;;;;;11.07;3.20;;;;;;;23.16;54.61;101275.25;5026302;28;20041;-70
2021/08/22 11:14:27;;;;;;;6.22;3.70;;;;;;;23.21;54.95;101266.66;5027649;28;20092;-70
2021/08/22 11:16:52;;;;;;;8.35;3.83;;;;;;;23.50;56.12;101268.38;5030590;28;20034;-70
2021/08/22 11:19:22;;;;;;;11.95;4.40;;;;;;;23.64;54.90;101268.97;5010544;28;20561;-69
2021/08/22 11:21:48;;;;;;;8.43;3.47;;;;;;;23.82;54.45;101262.72;5025948;28;20025;-70
2021/08/22 11:24:13;;;;;;;8.88;3.17;;;;;;;23.64;53.02;101262.84;5032721;28;20498;-70
2021/08/22 11:26:39;;;;;;;7.55;2.80;;;;;;;23.55;54.52;101261.59;5027044;28;20041;-69
2021/08/22 11:29:05;;;;;;;6.53;2.83;;;;;;;23.79;51.95;101252.63;5022815;28;20041;-69
2021/08/22 11:31:33;;;;;;;10.80;3.35;;;;;;;23.85;52.84;101264.94;5028954;28;20037;-69